Time;durP1;ratioP1;P1;durP2;ratioP2;P2;SDS_P1;SDS_P2;PMS_P1;PMS_P2;Temp;Humidity;BMP_temperature;BMP_pressure;BME280_temperature;BME280_humidity;BME280_pressure;Samples;Min_cycle;Max_cycle;Signal;HPM_P1;HPM_P2
2022/07/26 00:02:45;;;;;;;14.73;8.73;;;24.80;99.90;;;;;;5052304;28;20407;-71
2022/07/26 00:05:49;;;;;;;17.17;9.50;;;24.80;99.90;;;;;;5052119;28;20380;-71
2022/07/26 00:08:53;;;;;;;17.30;7.70;;;24.80;99.90;;;;;;5051931;28;20039;-72
2022/07/26 00:11:57;;;;;;;11.85;9.30;;;24.80;99.90;;;;;;5052287;28;20051;-71
2022/07/26 00:15:02;;;;;;;15.30;9.93;;;24.80;99.90;;;;;;5039085;28;20110;-71
2022/07/26 00:18:06;;;;;;;15.70;9.15;;;24.80;99.90;;;;;;5051851;28;20411;-71
2022/07/26 00:21:10;;;;;;;10.95;7.90;;;24.90;99.90;;;;;;5051306;28;20044;-71
2022/07/26 00:24:14;;;;;;;10.73;7.55;;;24.80;99.90;;;;;;5048076;28;20254;-71
2022/07/26 00:27:19;;;;;;;13.50;9.05;;;24.80;99.90;;;;;;5051188;28;20040;-71
2022/07/26 00:30:23;;;;;;;12.48;8.52;;;24.80;99.90;;;;;;5051505;28;20388;-72
2022/07/26 00:33:27;;;;;;;13.10;8.80;;;24.90;99.90;;;;;;5050998;28;20044;-71
2022/07/26 00:36:31;;;;;;;8.45;6.90;;;24.90;99.90;;;;;;5051699;28;20059;-71
2022/07/26 00:39:35;;;;;;;9.88;6.70;;;24.80;99.90;;;;;;5051631;28;20059;-72
2022/07/26 00:42:39;;;;;;;10.02;6.50;;;24.70;99.90;;;;;;5051707;28;20494;-71
2022/07/26 00:45:44;;;;;;;12.77;6.65;;;24.60;99.90;;;;;;5051510;28;20047;-71
2022/07/26 00:48:48;;;;;;;8.45;6.53;;;24.60;99.90;;;;;;5051554;28;20044;-71
2022/07/26 00:51:52;;;;;;;7.82;6.45;;;24.60;99.90;;;;;;5051343;28;20067;-71
2022/07/26 00:54:57;;;;;;;14.73;7.68;;;24.50;99.90;;;;;;5050641;28;20051;-72
2022/07/26 00:58:01;;;;;;;9.82;6.35;;;24.50;99.90;;;;;;5051010;28;20060;-71
2022/07/26 01:01:05;;;;;;;11.43;6.22;;;24.50;99.90;;;;;;5051251;28;20051;-71
2022/07/26 01:04:08;;;;;;;8.98;5.80;;;24.40;99.90;;;;;;5050663;28;20032;-71
2022/07/26 01:07:14;;;;;;;10.13;6.15;;;24.30;99.90;;;;;;5051240;28;20056;-72
2022/07/26 01:10:19;;;;;;;10.38;6.28;;;24.30;99.90;;;;;;5051061;28;20048;-72
2022/07/26 01:13:23;;;;;;;11.45;6.43;;;24.30;99.90;;;;;;5050318;28;20036;-72
2022/07/26 01:16:27;;;;;;;8.38;6.45;;;24.30;99.90;;;;;;5050710;28;20384;-71
2022/07/26 01:19:31;;;;;;;8.48;5.88;;;24.20;99.90;;;;;;5050910;28;20035;-71
2022/07/26 01:22:35;;;;;;;7.63;6.25;;;24.20;99.90;;;;;;5050390;28;20048;-71
2022/07/26 01:25:39;;;;;;;12.23;6.40;;;24.10;99.90;;;;;;5038050;28;20423;-71
2022/07/26 01:28:45;;;;;;;8.40;6.35;;;24.10;99.90;;;;;;5050594;28;20048;-71
2022/07/26 01:31:49;;;;;;;9.90;6.28;;;24.10;99.90;;;;;;5051647;28;20615;-72
2022/07/26 01:34:53;;;;;;;8.05;6.32;;;24.10;99.90;;;;;;5050237;28;20052;-71
2022/07/26 01:37:58;;;;;;;9.00;6.25;;;24.10;99.90;;;;;;5050570;28;20056;-71
2022/07/26 01:41:02;;;;;;;10.52;6.07;;;24.00;99.90;;;;;;5049782;28;20051;-72
2022/07/26 01:44:06;;;;;;;6.95;6.20;;;24.00;99.90;;;;;;5049895;28;20040;-71
2022/07/26 01:47:10;;;;;;;8.50;6.30;;;24.00;99.90;;;;;;5050160;28;20044;-71
2022/07/26 01:50:16;;;;;;;8.40;6.30;;;23.90;99.90;;;;;;5047977;28;20040;-71
2022/07/26 01:53:20;;;;;;;10.23;6.28;;;23.90;99.90;;;;;;5050715;28;20503;-71
2022/07/26 01:56:24;;;;;;;8.55;6.28;;;23.80;99.90;;;;;;5050721;28;20048;-71
2022/07/26 01:59:27;;;;;;;9.32;6.93;;;23.80;99.90;;;;;;5050957;28;20047;-71
2022/07/26 02:02:32;;;;;;;7.95;6.63;;;23.80;99.90;;;;;;5050213;28;20392;-71
2022/07/26 02:05:36;;;;;;;8.55;5.53;;;23.70;99.90;;;;;;5050548;28;20044;-71
2022/07/26 02:08:40;;;;;;;6.70;5.60;;;23.70;99.90;;;;;;5050219;28;20044;-72
2022/07/26 02:11:47;;;;;;;8.57;5.82;;;23.70;99.90;;;;;;5050829;28;20044;-71
2022/07/26 02:14:52;;;;;;;9.77;6.40;;;23.80;99.90;;;;;;5050222;28;20048;-71
2022/07/26 02:17:55;;;;;;;9.88;6.68;;;23.80;99.90;;;;;;5050297;28;20052;-71
2022/07/26 02:21:01;;;;;;;10.35;6.50;;;23.80;99.90;;;;;;5050406;28;20120;-71
2022/07/26 02:24:06;;;;;;;8.02;6.75;;;23.70;99.90;;;;;;5050034;28;20040;-71
2022/07/26 02:27:10;;;;;;;7.00;6.28;;;23.80;99.90;;;;;;5050529;28;20052;-71
2022/07/26 02:30:14;;;;;;;9.38;6.20;;;23.80;99.90;;;;;;5050121;28;20048;-71
2022/07/26 02:33:18;;;;;;;9.15;6.15;;;23.80;99.90;;;;;;5049766;28;20048;-71
2022/07/26 02:36:22;;;;;;;10.73;6.40;;;23.70;99.90;;;;;;5050183;28;20052;-71
2022/07/26 02:39:27;;;;;;;8.38;5.45;;;23.70;99.90;;;;;;5050281;28;20044;-71
2022/07/26 02:42:31;;;;;;;8.70;6.57;;;23.60;99.90;;;;;;5049984;28;20415;-71
2022/07/26 02:45:35;;;;;;;7.68;5.93;;;23.60;99.90;;;;;;5050110;28;20040;-71
2022/07/26 02:48:39;;;;;;;7.97;6.07;;;23.50;99.90;;;;;;5050283;28;20036;-72
2022/07/26 02:51:43;;;;;;;7.10;5.75;;;23.60;99.90;;;;;;5051075;28;20048;-71
2022/07/26 02:54:47;;;;;;;9.82;5.75;;;23.60;99.90;;;;;;5053741;28;20056;-71
2022/07/26 02:57:52;;;;;;;8.82;6.28;;;23.60;99.90;;;;;;5053696;28;20048;-72
2022/07/26 03:00:57;;;;;;;7.75;5.78;;;23.60;99.90;;;;;;5053561;28;20048;-71
2022/07/26 03:04:01;;;;;;;10.32;6.53;;;23.70;99.90;;;;;;5053829;28;20052;-71
2022/07/26 03:07:06;;;;;;;8.07;6.18;;;23.70;99.90;;;;;;5053616;28;20052;-71
2022/07/26 03:10:10;;;;;;;7.57;6.07;;;23.60;99.90;;;;;;5053488;28;20047;-71
2022/07/26 03:13:14;;;;;;;10.32;6.80;;;23.60;99.90;;;;;;5053518;28;20043;-71
2022/07/26 03:16:18;;;;;;;8.10;6.55;;;23.40;99.90;;;;;;5053121;28;20044;-71
2022/07/26 03:19:21;;;;;;;10.50;6.78;;;23.10;99.90;;;;;;5053396;28;20091;-71
2022/07/26 03:22:26;;;;;;;9.82;7.47;;;23.00;99.90;;;;;;5053176;28;20511;-71
2022/07/26 03:25:30;;;;;;;8.65;7.15;;;22.80;99.90;;;;;;5052862;28;20028;-71
2022/07/26 03:28:34;;;;;;;11.38;7.70;;;22.70;99.90;;;;;;5053278;28;20047;-71
2022/07/26 03:31:38;;;;;;;10.48;7.55;;;22.60;99.90;;;;;;5053032;28;20036;-71
2022/07/26 03:34:42;;;;;;;11.52;7.35;;;22.60;99.90;;;;;;5053106;28;20130;-72
2022/07/26 03:37:46;;;;;;;9.20;8.30;;;22.60;99.90;;;;;;5053173;28;20055;-72
2022/07/26 03:40:50;;;;;;;13.30;8.35;;;22.50;99.90;;;;;;5053019;28;20391;-72
2022/07/26 03:43:54;;;;;;;11.98;8.35;;;22.50;99.90;;;;;;5052817;28;20044;-72
2022/07/26 03:46:58;;;;;;;11.45;8.35;;;22.50;99.90;;;;;;5053159;28;20043;-72
2022/07/26 03:50:04;;;;;;;10.57;8.40;;;22.40;99.90;;;;;;5052908;28;20379;-71
2022/07/26 03:53:08;;;;;;;12.48;8.57;;;22.20;99.90;;;;;;5052601;28;20048;-72
2022/07/26 03:59:35;;;;;;;12.95;8.55;;;22.20;99.90;;;;;;5052477;28;20457;-72
2022/07/26 04:02:39;;;;;;;13.77;9.32;;;22.30;99.90;;;;;;5052218;28;20044;-72
2022/07/26 04:05:43;;;;;;;8.82;7.93;;;22.30;99.90;;;;;;5053035;28;20044;-71
2022/07/26 04:08:48;;;;;;;16.38;9.43;;;22.20;99.90;;;;;;5033649;28;20044;-71
2022/07/26 04:11:52;;;;;;;10.48;8.95;;;22.10;99.90;;;;;;5040484;28;20036;-72
2022/07/26 04:14:56;;;;;;;10.00;8.50;;;22.10;99.90;;;;;;5052417;28;20059;-71
2022/07/26 04:17:59;;;;;;;9.25;7.90;;;22.10;99.90;;;;;;5052739;28;20048;-71
2022/07/26 04:21:03;;;;;;;10.77;8.20;;;22.20;99.90;;;;;;5052210;28;20095;-72
2022/07/26 04:24:09;;;;;;;9.98;7.97;;;22.30;99.90;;;;;;5052471;28;20479;-71
2022/07/26 04:27:13;;;;;;;9.13;7.75;;;22.40;99.90;;;;;;5040280;28;20368;-72
2022/07/26 04:30:17;;;;;;;8.82;7.57;;;22.40;99.90;;;;;;5052180;28;20486;-71
2022/07/26 04:33:20;;;;;;;11.00;7.90;;;22.40;99.90;;;;;;5052150;28;20059;-71
2022/07/26 04:36:25;;;;;;;9.05;8.15;;;22.40;99.90;;;;;;5052289;28;20052;-72
2022/07/26 04:39:28;;;;;;;8.95;8.05;;;22.50;99.90;;;;;;5052288;28;20036;-71
2022/07/26 04:42:32;;;;;;;9.50;7.82;;;22.50;99.90;;;;;;5051844;28;20052;-72
2022/07/26 04:45:36;;;;;;;16.42;7.70;;;22.70;99.90;;;;;;5052003;28;20495;-71
2022/07/26 04:48:42;;;;;;;10.57;7.75;;;22.80;99.90;;;;;;5051840;28;20067;-72
2022/07/26 04:51:46;;;;;;;11.90;7.38;;;22.80;99.90;;;;;;5051708;28;20047;-71
2022/07/26 04:54:51;;;;;;;10.45;7.38;;;23.50;99.90;;;;;;5051850;28;20056;-72
2022/07/26 04:57:56;;;;;;;10.20;7.50;;;23.60;99.90;;;;;;5051803;28;20067;-72
2022/07/26 05:01:00;;;;;;;13.27;8.05;;;23.50;99.90;;;;;;5051593;28;20049;-71
2022/07/26 05:04:05;;;;;;;12.75;7.75;;;23.60;99.90;;;;;;5051285;28;20044;-71
2022/07/26 05:07:08;;;;;;;15.57;7.40;;;24.20;99.90;;;;;;5051735;28;20044;-72
2022/07/26 05:10:15;;;;;;;12.93;6.70;;;24.20;99.90;;;;;;5051748;28;20048;-72
2022/07/26 05:13:19;;;;;;;8.13;6.40;;;25.00;99.90;;;;;;5051213;28;20044;-71
2022/07/26 05:16:23;;;;;;;13.77;6.75;;;26.80;99.90;;;;;;5050882;28;20048;-71
2022/07/26 05:19:27;;;;;;;10.07;5.90;;;28.20;99.90;;;;;;5051259;28;20407;-71
2022/07/26 05:22:32;;;;;;;12.18;6.70;;;29.00;99.90;;;;;;5051379;28;20065;-71
2022/07/26 05:25:37;;;;;;;10.60;5.95;;;29.10;99.90;;;;;;5051174;28;20052;-72
2022/07/26 05:28:41;;;;;;;12.30;6.50;;;30.20;99.90;;;;;;5051539;28;20048;-72
2022/07/26 05:31:45;;;;;;;10.15;6.18;;;30.80;99.90;;;;;;5050970;28;20048;-72
2022/07/26 05:34:49;;;;;;;7.53;5.53;;;31.40;98.90;;;;;;5051091;28;20048;-71
2022/07/26 05:37:54;;;;;;;5.22;4.72;;;31.70;97.50;;;;;;5051243;28;20055;-72
2022/07/26 05:40:57;;;;;;;7.07;4.65;;;31.00;97.80;;;;;;5050962;28;20510;-73
2022/07/26 05:44:02;;;;;;;11.80;5.07;;;31.10;98.20;;;;;;5051085;28;20395;-72
2022/07/26 05:47:05;;;;;;;10.13;5.47;;;31.50;97.30;;;;;;5051166;28;20490;-71
2022/07/26 05:50:09;;;;;;;7.75;5.40;;;31.50;97.20;;;;;;5051127;28;20044;-71
2022/07/26 05:53:14;;;;;;;8.55;5.15;;;30.60;97.90;;;;;;5032356;28;20047;-72
2022/07/26 05:56:19;;;;;;;6.43;5.43;;;31.00;98.50;;;;;;5051255;28;20044;-72
2022/07/26 05:59:23;;;;;;;8.95;5.45;;;32.20;97.40;;;;;;5047708;28;20048;-71
2022/07/26 06:02:28;;;;;;;8.15;5.22;;;32.20;96.00;;;;;;5030832;28;20049;-71
2022/07/26 06:05:31;;;;;;;6.05;4.72;;;31.90;95.70;;;;;;5031665;28;20060;-71
2022/07/26 06:08:36;;;;;;;6.50;4.82;;;31.90;96.00;;;;;;5053111;28;20055;-71
2022/07/26 06:11:41;;;;;;;7.03;4.70;;;32.30;96.00;;;;;;5047993;28;20047;-71
2022/07/26 06:14:44;;;;;;;6.47;4.40;;;33.10;94.80;;;;;;5048897;28;20048;-71
2022/07/26 06:17:48;;;;;;;5.93;4.78;;;33.50;93.70;;;;;;5047099;28;20051;-71
2022/07/26 06:20:52;;;;;;;6.82;5.22;;;31.80;94.40;;;;;;5045922;28;20040;-71
2022/07/26 06:23:56;;;;;;;13.98;5.22;;;30.60;96.30;;;;;;5049519;28;20052;-71
2022/07/26 06:27:00;;;;;;;14.20;5.35;;;31.20;95.80;;;;;;5049609;28;20491;-71
2022/07/26 06:30:06;;;;;;;12.85;4.90;;;31.50;95.30;;;;;;5055642;28;20395;-71
2022/07/26 06:33:10;;;;;;;8.85;4.60;;;31.90;95.10;;;;;;5051619;28;20387;-71
2022/07/26 06:36:15;;;;;;;8.32;4.30;;;32.70;93.90;;;;;;5033449;28;20048;-72
2022/07/26 06:39:19;;;;;;;7.43;4.07;;;33.10;93.40;;;;;;5040661;28;20044;-71
2022/07/26 06:42:23;;;;;;;6.10;4.10;;;33.80;92.70;;;;;;5052834;28;20040;-71
2022/07/26 06:45:28;;;;;;;7.03;4.43;;;34.50;91.90;;;;;;5049871;28;20059;-72
2022/07/26 06:48:34;;;;;;;12.55;4.20;;;34.80;90.80;;;;;;5034089;28;20056;-72
2022/07/26 06:51:38;;;;;;;5.55;4.10;;;35.10;90.30;;;;;;5049099;28;20049;-72
2022/07/26 06:54:41;;;;;;;9.40;4.40;;;35.50;89.60;;;;;;5043486;28;20040;-72
2022/07/26 06:57:46;;;;;;;6.10;4.07;;;36.00;87.60;;;;;;5053307;28;20249;-72
2022/07/26 07:00:50;;;;;;;6.28;4.00;;;35.80;87.10;;;;;;5050319;28;20051;-71
2022/07/26 07:03:54;;;;;;;8.52;4.40;;;35.60;86.90;;;;;;5060945;28;20048;-71
2022/07/26 07:07:02;;;;;;;7.07;4.00;;;35.30;87.10;;;;;;5057330;28;20475;-71
2022/07/26 07:10:07;;;;;;;5.18;3.95;;;35.00;87.70;;;;;;5047939;28;20130;-71
2022/07/26 07:13:10;;;;;;;4.28;3.70;;;34.70;88.10;;;;;;5052303;28;20051;-72
2022/07/26 07:16:15;;;;;;;6.47;3.78;;;35.00;87.20;;;;;;5041441;28;20055;-71
2022/07/26 07:19:19;;;;;;;9.63;3.88;;;34.90;87.50;;;;;;5054015;28;20052;-71
2022/07/26 07:22:24;;;;;;;6.53;4.38;;;35.20;86.60;;;;;;5052858;28;20036;-71
2022/07/26 07:25:28;;;;;;;5.30;3.65;;;35.30;86.80;;;;;;5045956;28;20044;-71
2022/07/26 07:28:37;;;;;;;5.07;3.50;;;35.40;85.40;;;;;;5053613;28;20044;-72
2022/07/26 07:31:41;;;;;;;6.97;3.85;;;35.50;86.90;;;;;;5053056;28;20051;-71
2022/07/26 07:34:46;;;;;;;6.70;3.67;;;34.90;86.60;;;;;;5039761;28;20052;-71
2022/07/26 07:37:51;;;;;;;8.30;4.20;;;35.60;86.80;;;;;;5053100;28;20607;-72
2022/07/26 07:40:55;;;;;;;6.60;4.13;;;37.00;84.90;;;;;;5063415;28;20047;-72
2022/07/26 07:43:59;;;;;;;5.55;3.90;;;36.60;84.50;;;;;;5056158;28;20052;-72
2022/07/26 07:47:03;;;;;;;7.53;4.85;;;36.90;84.40;;;;;;5050419;28;20052;-72
2022/07/26 07:50:07;;;;;;;8.25;5.00;;;36.20;85.50;;;;;;5049953;28;20040;-71
2022/07/26 07:53:12;;;;;;;8.07;5.10;;;36.00;86.50;;;;;;5052046;28;20056;-70
2022/07/26 07:56:16;;;;;;;11.48;5.43;;;35.30;88.20;;;;;;5051747;28;20051;-72
2022/07/26 07:59:21;;;;;;;7.43;4.43;;;33.70;90.60;;;;;;5040482;28;20055;-71
2022/07/26 08:02:24;;;;;;;8.43;4.95;;;33.20;91.10;;;;;;5037696;28;20040;-71
2022/07/26 08:05:28;;;;;;;8.10;5.43;;;32.10;92.00;;;;;;5034858;28;20391;-71
2022/07/26 08:08:34;;;;;;;9.95;4.97;;;32.30;92.50;;;;;;5052475;28;20144;-71
2022/07/26 08:11:37;;;;;;;7.60;5.35;;;33.10;92.10;;;;;;5052149;28;20048;-71
2022/07/26 08:14:42;;;;;;;9.27;4.80;;;34.30;91.20;;;;;;5051904;28;20096;-72
2022/07/26 08:17:45;;;;;;;9.48;4.70;;;36.40;88.40;;;;;;5051119;28;20044;-71
2022/07/26 08:20:51;;;;;;;11.20;4.82;;;38.30;85.20;;;;;;5043227;28;20438;-72
2022/07/26 08:23:55;;;;;;;7.22;4.20;;;39.30;81.90;;;;;;5053933;28;20040;-72
2022/07/26 08:26:59;;;;;;;9.00;4.95;;;40.00;80.70;;;;;;5048879;28;20487;-72
2022/07/26 08:30:04;;;;;;;12.25;5.45;;;40.60;78.80;;;;;;5035713;28;20040;-72
2022/07/26 08:33:09;;;;;;;14.70;5.88;;;40.20;78.30;;;;;;5044436;28;20064;-72
2022/07/26 08:36:16;;;;;;;8.25;5.30;;;36.50;82.70;;;;;;5049560;28;20102;-72
2022/07/26 08:39:20;;;;;;;8.82;4.95;;;37.90;82.50;;;;;;5043583;28;20048;-72
2022/07/26 08:42:24;;;;;;;6.28;4.32;;;40.00;79.50;;;;;;5051258;28;20396;-71
2022/07/26 08:45:30;;;;;;;7.20;4.40;;;39.40;79.10;;;;;;5049702;28;20502;-72
2022/07/26 08:48:34;;;;;;;9.88;4.47;;;40.00;79.00;;;;;;5048674;28;20045;-72
2022/07/26 08:51:42;;;;;;;8.57;5.90;;;37.50;79.70;;;;;;5057781;28;20059;-72
2022/07/26 08:54:49;;;;;;;10.77;5.38;;;36.00;83.50;;;;;;5064377;28;20391;-72
2022/07/26 08:57:53;;;;;;;7.93;5.03;;;38.40;81.70;;;;;;5043633;28;20044;-71
2022/07/26 09:01:11;;;;;;;9.57;5.68;;;37.00;82.70;;;;;;5050492;28;20040;-72
2022/07/26 09:04:21;;;;;;;7.90;5.20;;;35.90;83.70;;;;;;5048905;28;20048;-72
2022/07/26 09:07:31;;;;;;;11.10;5.50;;;37.70;82.40;;;;;;5047087;28;20494;-72
2022/07/26 09:10:35;;;;;;;9.73;5.28;;;37.10;82.20;;;;;;5049706;28;20043;-72
2022/07/26 09:13:51;;;;;;;10.75;5.25;;;39.70;79.70;;;;;;5047123;28;20052;-72
2022/07/26 09:16:59;;;;;;;7.35;4.72;;;39.20;76.80;;;;;;5018964;28;20053;-72
2022/07/26 09:20:19;;;;;;;7.70;4.70;;;40.70;77.50;;;;;;5042650;28;20399;-73
2022/07/26 09:23:23;;;;;;;9.98;4.40;;;42.70;74.50;;;;;;5040239;28;20123;-73
2022/07/26 09:26:27;;;;;;;6.43;4.03;;;43.80;72.40;;;;;;5033053;28;20590;-73
2022/07/26 09:29:51;;;;;;;6.38;3.65;;;45.80;69.30;;;;;;5033526;28;20044;-73
2022/07/26 09:33:03;;;;;;;6.68;4.40;;;46.50;67.20;;;;;;5042927;28;20040;-72
2022/07/26 09:36:08;;;;;;;10.65;5.40;;;41.60;70.20;;;;;;5048151;28;20498;-72
2022/07/26 09:39:12;;;;;;;8.88;4.70;;;40.80;72.80;;;;;;5050167;28;20052;-72
2022/07/26 09:42:20;;;;;;;9.77;4.88;;;41.10;73.30;;;;;;5030210;28;20048;-72
2022/07/26 09:45:26;;;;;;;10.63;5.45;;;40.80;73.10;;;;;;5030026;28;20511;-72
2022/07/26 09:48:30;;;;;;;10.40;5.65;;;37.60;76.90;;;;;;5046953;28;20039;-72
2022/07/26 09:51:45;;;;;;;14.80;6.15;;;36.70;80.30;;;;;;5043979;28;20048;-72
2022/07/26 09:54:50;;;;;;;11.50;5.75;;;36.40;80.70;;;;;;5053571;28;20048;-72
2022/07/26 09:57:54;;;;;;;9.35;4.85;;;38.90;78.00;;;;;;5046831;28;20048;-71
2022/07/26 10:00:58;;;;;;;5.90;4.78;;;40.60;75.10;;;;;;5044290;28;20033;-73
2022/07/26 10:04:02;;;;;;;10.10;4.50;;;43.30;71.40;;;;;;5049785;28;20052;-72
2022/07/26 10:07:08;;;;;;;6.78;4.00;;;44.20;69.90;;;;;;5046929;28;20120;-73
2022/07/26 10:10:21;;;;;;;9.27;4.10;;;45.00;68.60;;;;;;5033103;28;20049;-72
2022/07/26 10:13:27;;;;;;;10.98;4.30;;;45.90;68.10;;;;;;5042372;28;20040;-72
2022/07/26 10:16:33;;;;;;;7.53;4.15;;;46.10;66.70;;;;;;5031095;28;20404;-73
2022/07/26 10:19:38;;;;;;;6.57;4.60;;;44.60;67.50;;;;;;5049409;28;20067;-72
2022/07/26 10:22:45;;;;;;;8.05;4.63;;;43.00;69.20;;;;;;5049412;28;20048;-72
2022/07/26 10:25:49;;;;;;;10.27;4.85;;;41.10;70.70;;;;;;5049766;28;20036;-72
2022/07/26 10:28:53;;;;;;;6.78;5.10;;;39.80;73.00;;;;;;5050055;28;20396;-72
2022/07/26 10:32:13;;;;;;;10.20;5.38;;;39.20;74.20;;;;;;5049634;28;20098;-72
2022/07/26 10:35:35;;;;;;;9.52;5.40;;;38.90;74.80;;;;;;5017002;28;20057;-72
2022/07/26 10:38:39;;;;;;;8.30;5.78;;;38.70;75.30;;;;;;5044584;28;20044;-72
2022/07/26 10:41:46;;;;;;;8.77;5.70;;;38.70;75.00;;;;;;5047477;28;20048;-72
2022/07/26 10:44:50;;;;;;;12.02;5.03;;;40.60;73.40;;;;;;5016913;28;20047;-72
2022/07/26 10:48:13;;;;;;;11.00;5.47;;;41.10;71.90;;;;;;5054244;28;20392;-73
2022/07/26 10:51:26;;;;;;;8.52;5.07;;;43.00;70.10;;;;;;5054044;28;20095;-73
2022/07/26 10:54:30;;;;;;;12.75;5.05;;;45.10;67.60;;;;;;5065503;28;20043;-72
2022/07/26 10:57:40;;;;;;;9.02;4.88;;;45.90;66.20;;;;;;5045703;28;20509;-72
2022/07/26 11:01:00;;;;;;;23.15;5.50;;;45.50;65.70;;;;;;5045311;28;20048;-71
2022/07/26 11:04:05;;;;;;;11.52;4.90;;;44.40;66.20;;;;;;5048154;28;20040;-72
2022/07/26 11:07:11;;;;;;;7.72;4.65;;;42.70;67.50;;;;;;5037106;28;20048;-72
2022/07/26 11:10:15;;;;;;;9.20;4.60;;;43.60;67.80;;;;;;5043131;28;20044;-72
2022/07/26 11:13:22;;;;;;;11.93;5.15;;;44.80;66.00;;;;;;5044640;28;20498;-72
2022/07/26 11:16:26;;;;;;;9.57;5.38;;;45.20;66.30;;;;;;5049061;28;20510;-72
2022/07/26 11:19:30;;;;;;;9.00;4.85;;;45.20;65.70;;;;;;5046092;28;20495;-73
2022/07/26 11:22:34;;;;;;;8.80;4.15;;;46.20;65.40;;;;;;5052806;28;20443;-72
2022/07/26 11:25:39;;;;;;;8.35;4.25;;;47.10;63.90;;;;;;5034527;28;20036;-72
2022/07/26 11:28:55;;;;;;;8.88;4.47;;;48.20;62.70;;;;;;5045060;28;20400;-72
2022/07/26 11:32:00;;;;;;;11.60;4.70;;;47.30;62.00;;;;;;5040229;28;20044;-72
2022/07/26 11:35:05;;;;;;;6.82;4.78;;;46.10;62.90;;;;;;5034266;28;20521;-72
2022/07/26 11:38:09;;;;;;;9.02;4.32;;;46.80;62.90;;;;;;5052296;28;20112;-72
2022/07/26 11:41:17;;;;;;;5.95;4.00;;;46.60;62.10;;;;;;5049715;28;20044;-72
2022/07/26 11:44:22;;;;;;;9.43;4.07;;;47.10;61.80;;;;;;5053978;28;20489;-72
2022/07/26 11:47:27;;;;;;;6.35;4.20;;;47.50;61.30;;;;;;5048128;28;20522;-72
2022/07/26 11:50:32;;;;;;;10.82;4.10;;;47.10;60.70;;;;;;5045213;28;20032;-72
2022/07/26 11:53:37;;;;;;;6.90;4.15;;;45.90;61.90;;;;;;5049563;28;20079;-72
2022/07/26 11:57:08;;;;;;;7.20;4.18;;;44.20;62.80;;;;;;5050481;28;20048;-72
2022/07/26 12:00:13;;;;;;;10.30;4.50;;;43.30;64.00;;;;;;5019907;28;20060;-72
2022/07/26 12:03:17;;;;;;;15.88;5.68;;;43.00;64.60;;;;;;5035960;28;20517;-72
2022/07/26 12:06:24;;;;;;;10.38;4.88;;;42.70;64.90;;;;;;5049175;28;20036;-72
2022/07/26 12:09:37;;;;;;;13.07;5.18;;;43.70;64.10;;;;;;5048496;28;20040;-72
2022/07/26 12:12:43;;;;;;;9.27;5.25;;;42.50;64.40;;;;;;5056531;28;20078;-73
2022/07/26 12:15:49;;;;;;;8.35;4.70;;;43.70;64.00;;;;;;5059185;28;20051;-72
2022/07/26 12:18:53;;;;;;;6.75;4.90;;;44.70;63.50;;;;;;5048312;28;20048;-72
2022/07/26 12:22:12;;;;;;;9.88;4.65;;;44.30;63.80;;;;;;5043113;28;20040;-72
2022/07/26 12:25:27;;;;;;;10.48;4.88;;;43.40;64.50;;;;;;5046941;28;20067;-71
2022/07/26 12:28:41;;;;;;;8.02;5.38;;;42.60;65.30;;;;;;5045124;28;20047;-72
2022/07/26 12:31:45;;;;;;;10.90;5.80;;;42.40;65.40;;;;;;5049880;28;20056;-72
2022/07/26 12:35:00;;;;;;;8.77;4.95;;;43.40;64.90;;;;;;5042839;28;20051;-73
2022/07/26 12:38:04;;;;;;;5.97;4.45;;;44.70;63.60;;;;;;5047997;28;20056;-72
2022/07/26 12:41:10;;;;;;;9.32;5.25;;;45.40;63.00;;;;;;5046213;28;20052;-72
2022/07/26 12:44:14;;;;;;;7.30;4.70;;;45.90;62.50;;;;;;5046624;28;20048;-72
2022/07/26 12:47:19;;;;;;;8.75;4.78;;;44.20;63.90;;;;;;5048053;28;20052;-72
2022/07/26 12:50:24;;;;;;;13.88;5.25;;;42.60;64.40;;;;;;5038550;28;20385;-72
2022/07/26 12:53:28;;;;;;;10.63;5.65;;;41.30;66.00;;;;;;5043208;28;20371;-72
2022/07/26 12:56:33;;;;;;;12.00;5.75;;;41.10;66.40;;;;;;5050444;28;20052;-71
2022/07/26 12:59:37;;;;;;;12.15;5.70;;;41.30;66.40;;;;;;5050598;28;20051;-72
2022/07/26 13:02:42;;;;;;;8.02;5.00;;;41.80;66.00;;;;;;5048827;28;20518;-72
2022/07/26 13:05:46;;;;;;;11.50;5.43;;;42.20;65.40;;;;;;5047640;28;20517;-73
2022/07/26 13:08:50;;;;;;;11.18;5.40;;;41.90;65.60;;;;;;5051305;28;20051;-72
2022/07/26 13:11:55;;;;;;;7.20;5.28;;;41.30;66.20;;;;;;5049615;28;20048;-72
2022/07/26 13:14:59;;;;;;;10.65;5.57;;;41.00;66.40;;;;;;5037773;28;20047;-72
2022/07/26 13:18:04;;;;;;;12.80;5.30;;;41.50;66.00;;;;;;5053954;28;20043;-71
2022/07/26 13:21:09;;;;;;;14.18;6.80;;;40.70;66.40;;;;;;5050876;28;20032;-72
2022/07/26 13:24:13;;;;;;;11.13;5.78;;;38.40;69.30;;;;;;5037578;28;20063;-72
2022/07/26 13:27:17;;;;;;;8.73;6.07;;;38.20;70.40;;;;;;5057570;28;20498;-72
2022/07/26 13:30:21;;;;;;;8.68;5.65;;;39.10;69.20;;;;;;5045666;28;20487;-72
2022/07/26 13:33:25;;;;;;;10.50;6.40;;;39.90;68.00;;;;;;5055326;28;20039;-71
2022/07/26 13:36:30;;;;;;;9.02;6.35;;;39.60;68.30;;;;;;5051827;28;20040;-71
2022/07/26 13:39:33;;;;;;;13.02;6.28;;;39.90;68.00;;;;;;5049988;28;20044;-72
2022/07/26 13:42:38;;;;;;;11.13;6.15;;;38.30;70.10;;;;;;5038475;28;20047;-72
2022/07/26 13:45:43;;;;;;;8.23;6.57;;;38.30;69.90;;;;;;5046193;28;20418;-71
2022/07/26 13:48:47;;;;;;;10.63;6.63;;;37.80;70.40;;;;;;5049253;28;20494;-71
2022/07/26 13:51:57;;;;;;;14.00;6.78;;;36.10;72.90;;;;;;5035532;28;20396;-72
2022/07/26 13:55:02;;;;;;;11.15;6.63;;;36.90;72.90;;;;;;5055332;28;20063;-72
2022/07/26 13:58:06;;;;;;;15.20;6.50;;;37.90;70.90;;;;;;5056037;28;20052;-71
2022/07/26 14:01:09;;;;;;;7.82;6.32;;;38.60;70.10;;;;;;5058031;28;20063;-72
2022/07/26 14:04:14;;;;;;;11.32;6.05;;;38.90;70.00;;;;;;5056133;28;20494;-72
2022/07/26 14:07:18;;;;;;;17.80;6.63;;;39.00;69.40;;;;;;5044481;28;20048;-72
2022/07/26 14:10:23;;;;;;;14.63;6.68;;;38.90;69.60;;;;;;5050370;28;20040;-72
2022/07/26 14:13:27;;;;;;;10.45;6.95;;;38.80;69.60;;;;;;5052093;28;20494;-72
2022/07/26 14:16:33;;;;;;;9.52;6.28;;;37.60;71.20;;;;;;5050217;28;20048;-71
2022/07/26 14:19:37;;;;;;;11.18;6.22;;;38.30;71.00;;;;;;5050974;28;20121;-71
2022/07/26 14:22:41;;;;;;;9.38;5.72;;;39.20;69.50;;;;;;5046526;28;20396;-72
2022/07/26 14:25:45;;;;;;;19.75;5.57;;;39.50;67.40;;;;;;5052014;28;20059;-72
2022/07/26 14:28:49;;;;;;;13.10;5.93;;;39.80;66.70;;;;;;5051365;28;20044;-72
2022/07/26 14:31:53;;;;;;;11.80;5.57;;;39.70;67.10;;;;;;5047261;28;20040;-71
2022/07/26 14:34:57;;;;;;;14.48;5.25;;;39.80;66.90;;;;;;5057944;28;20501;-72
2022/07/26 14:38:01;;;;;;;23.90;6.32;;;39.60;66.60;;;;;;5056384;28;20043;-71
2022/07/26 14:41:05;;;;;;;11.77;5.32;;;39.50;67.00;;;;;;5057647;28;20036;-71
2022/07/26 14:44:09;;;;;;;11.52;5.40;;;39.30;67.20;;;;;;5052064;28;20040;-72
2022/07/26 14:47:13;;;;;;;10.52;6.07;;;39.10;66.80;;;;;;5050218;28;20039;-71
2022/07/26 14:50:17;;;;;;;10.82;5.18;;;38.70;68.00;;;;;;5053210;28;20494;-71
2022/07/26 14:53:23;;;;;;;15.05;6.10;;;39.10;67.20;;;;;;5048117;28;20055;-70
2022/07/26 14:56:27;;;;;;;8.77;5.40;;;39.20;66.70;;;;;;5055662;28;20048;-72
2022/07/26 14:59:31;;;;;;;13.20;6.65;;;39.20;66.50;;;;;;5052152;28;20039;-71
2022/07/26 15:02:44;;;;;;;8.80;5.22;;;39.00;66.60;;;;;;5046868;28;20048;-72
2022/07/26 15:05:48;;;;;;;11.75;5.32;;;38.80;66.50;;;;;;5054017;28;20052;-71
2022/07/26 15:08:53;;;;;;;10.02;5.20;;;38.80;66.70;;;;;;5048898;28;20052;-71
2022/07/26 15:11:58;;;;;;;9.13;5.53;;;38.70;66.20;;;;;;5064674;28;20040;-71
2022/07/26 15:15:03;;;;;;;14.18;5.38;;;38.70;65.70;;;;;;5050103;28;20039;-71
2022/07/26 15:18:07;;;;;;;12.07;4.80;;;38.60;66.80;;;;;;5038285;28;20124;-72
2022/07/26 15:21:14;;;;;;;11.75;6.20;;;38.50;67.20;;;;;;5052408;28;20048;-71
2022/07/26 15:24:18;;;;;;;11.85;5.75;;;38.30;67.20;;;;;;5050576;28;20048;-71
2022/07/26 15:27:22;;;;;;;17.20;5.38;;;38.10;67.00;;;;;;5051443;28;20515;-72
2022/07/26 15:30:26;;;;;;;10.90;5.25;;;37.40;68.30;;;;;;5052337;28;20044;-71
2022/07/26 15:33:31;;;;;;;10.25;6.10;;;37.10;69.10;;;;;;5019354;28;20052;-72
2022/07/26 15:36:35;;;;;;;8.82;5.30;;;37.40;69.10;;;;;;5047996;28;20048;-72
2022/07/26 15:39:39;;;;;;;15.13;5.60;;;37.40;68.70;;;;;;5049114;28;20040;-71
2022/07/26 15:42:44;;;;;;;11.02;5.40;;;37.40;67.40;;;;;;5051908;28;20248;-71
2022/07/26 15:45:48;;;;;;;16.15;5.70;;;36.50;67.30;;;;;;5050645;28;20040;-72
2022/07/26 15:48:52;;;;;;;9.82;4.95;;;36.60;68.30;;;;;;5045442;28;20499;-71
2022/07/26 15:51:56;;;;;;;9.55;5.38;;;36.50;68.10;;;;;;5047540;28;20056;-71
2022/07/26 15:55:00;;;;;;;18.17;6.05;;;36.60;68.50;;;;;;5051297;28;20052;-71
2022/07/26 15:58:04;;;;;;;14.52;5.47;;;36.60;68.70;;;;;;5051838;28;20048;-71
2022/07/26 16:01:08;;;;;;;9.32;5.13;;;36.50;68.90;;;;;;5051795;28;20040;-71
2022/07/26 16:04:12;;;;;;;9.15;5.25;;;36.40;69.10;;;;;;5050838;28;20044;-72